Time;durP1;ratioP1;P1;durP2;ratioP2;P2;SDS_P1;SDS_P2;PMS_P1;PMS_P2;Temp;Humidity;BMP_temperature;BMP_pressure;BME280_temperature;BME280_humidity;BME280_pressure;Samples;Min_cycle;Max_cycle;Signal;HPM_P1;HPM_P2
2022/11/13 00:00:31;;;;;;;31.10;16.52;;;18.50;89.20;;;18.85;52.18;100278.59;5032197;28;20507;-74
2022/11/13 00:03:17;;;;;;;28.98;16.55;;;18.40;89.10;;;18.83;52.33;100272.56;5029784;28;20050;-74
2022/11/13 00:05:43;;;;;;;35.58;16.95;;;18.40;89.10;;;18.86;52.80;100288.47;5011844;28;20438;-74
2022/11/13 00:08:10;;;;;;;27.63;15.77;;;18.40;89.70;;;18.88;52.80;100274.44;5029243;28;20053;-74
2022/11/13 00:10:36;;;;;;;29.00;16.77;;;18.40;90.00;;;18.83;52.75;100282.75;5002944;28;20124;-74
2022/11/13 00:13:01;;;;;;;26.95;15.52;;;18.40;90.00;;;18.84;52.22;100287.13;4978012;28;20120;-74
2022/11/13 00:15:28;;;;;;;28.38;17.80;;;18.40;89.40;;;18.80;52.01;100273.16;5028739;28;20409;-74
2022/11/13 00:17:54;;;;;;;25.00;14.95;;;18.40;89.10;;;18.82;52.30;100270.09;5032047;28;20045;-74
2022/11/13 00:20:20;;;;;;;27.15;15.75;;;18.50;88.90;;;18.82;52.28;100272.84;5026454;28;20444;-74
2022/11/13 00:22:46;;;;;;;25.52;14.43;;;18.50;88.80;;;18.83;52.61;100271.75;4999338;28;20046;-74
2022/11/13 00:25:13;;;;;;;28.77;15.32;;;18.40;89.40;;;18.86;52.67;100265.66;5021623;28;20366;-74
2022/11/13 00:27:39;;;;;;;25.58;15.48;;;18.40;89.70;;;18.85;52.46;100264.00;5017276;28;20041;-74
2022/11/13 00:30:05;;;;;;;29.55;15.98;;;18.40;89.20;;;18.83;52.29;100264.31;5036990;28;20087;-74
2022/11/13 00:32:31;;;;;;;27.45;15.38;;;18.40;89.10;;;18.80;52.29;100267.66;5035939;28;20049;-74
2022/11/13 00:34:58;;;;;;;26.45;14.20;;;18.40;88.80;;;18.83;52.13;100271.75;5016193;28;20041;-74
2022/11/13 00:37:24;;;;;;;25.23;14.23;;;18.50;88.60;;;18.82;52.63;100272.84;5035209;28;20441;-74
2022/11/13 00:39:49;;;;;;;26.90;15.77;;;18.40;88.90;;;18.85;52.66;100272.25;5031676;28;20099;-74
2022/11/13 00:42:16;;;;;;;27.90;14.50;;;18.40;89.40;;;18.84;52.67;100267.88;4999082;28;20183;-74
2022/11/13 00:44:41;;;;;;;24.20;14.57;;;18.40;89.50;;;18.82;52.27;100265.41;5034680;28;20785;-74
2022/11/13 00:47:07;;;;;;;26.05;14.57;;;18.40;89.10;;;18.84;52.22;100265.94;5000891;28;20037;-74
2022/11/13 00:49:34;;;;;;;27.48;15.88;;;18.40;88.90;;;18.83;52.14;100260.75;5038019;28;20393;-74
2022/11/13 00:52:01;;;;;;;22.85;13.25;;;18.40;88.80;;;18.81;52.02;100261.03;4997799;28;20033;-74
2022/11/13 00:54:27;;;;;;;25.77;14.93;;;18.40;88.40;;;18.82;52.50;100259.09;5014718;28;20038;-74
2022/11/13 00:56:54;;;;;;;20.75;14.40;;;18.50;89.20;;;18.77;52.66;100262.72;5028781;28;20600;-75
2022/11/13 00:59:20;;;;;;;25.55;13.82;;;18.40;89.30;;;18.78;52.51;100258.06;5008310;28;20164;-75
2022/11/13 01:01:45;;;;;;;20.23;12.65;;;18.40;89.30;;;18.82;52.23;100257.16;4999311;28;20063;-75
2022/11/13 01:04:12;;;;;;;29.35;16.02;;;18.40;89.10;;;18.77;52.04;100259.16;5031653;28;20037;-75
2022/11/13 01:06:38;;;;;;;21.60;13.80;;;18.40;88.70;;;18.79;52.12;100252.25;5006633;28;20042;-75
2022/11/13 01:09:05;;;;;;;27.75;13.05;;;18.40;88.40;;;18.78;52.05;100250.63;5014393;28;20078;-75
2022/11/13 01:11:31;;;;;;;28.90;14.68;;;18.40;88.50;;;18.73;52.99;100252.59;5013663;28;20042;-75
2022/11/13 01:13:57;;;;;;;21.95;12.98;;;18.40;89.60;;;18.77;52.66;100248.97;5010850;28;20088;-75
2022/11/13 01:16:24;;;;;;;25.83;13.60;;;18.40;89.70;;;18.78;52.37;100247.88;5030526;28;20045;-75
2022/11/13 01:18:53;;;;;;;22.58;13.35;;;18.40;90.00;;;18.78;52.21;100253.38;4999416;28;20091;-75
2022/11/13 01:21:22;;;;;;;25.85;13.32;;;18.40;88.90;;;18.79;52.17;100248.69;5014459;28;20049;-75
2022/11/13 01:23:48;;;;;;;24.73;13.35;;;18.50;88.60;;;18.78;51.99;100242.38;5032123;28;20041;-75
2022/11/13 01:26:17;;;;;;;22.50;13.10;;;18.50;88.60;;;18.77;52.50;100242.66;5013342;28;20046;-75
2022/11/13 01:28:43;;;;;;;23.55;13.35;;;18.40;89.00;;;18.79;52.50;100240.44;5030772;28;20923;-75
2022/11/13 01:31:15;;;;;;;23.52;13.18;;;18.40;89.30;;;18.80;52.58;100240.19;5015035;28;20131;-75
2022/11/13 01:33:43;;;;;;;19.98;11.48;;;18.40;89.30;;;18.79;52.18;100233.03;4998137;28;20041;-75
2022/11/13 01:36:23;;;;;;;22.60;13.60;;;18.40;88.50;;;18.76;52.19;100239.09;4998835;28;20041;-75
2022/11/13 01:38:50;;;;;;;23.33;12.07;;;18.40;88.40;;;18.77;51.86;100235.25;5016870;28;20484;-75
2022/11/13 01:41:27;;;;;;;20.48;11.30;;;18.40;88.40;;;18.79;52.11;100232.22;5030867;28;20045;-75
2022/11/13 01:43:54;;;;;;;24.20;13.13;;;18.40;88.40;;;18.77;52.62;100229.75;5015464;28;20048;-75
2022/11/13 01:46:34;;;;;;;22.70;13.60;;;18.40;89.40;;;18.80;52.60;100228.34;5016953;28;20509;-74
2022/11/13 01:49:07;;;;;;;23.42;12.98;;;18.40;89.40;;;18.76;52.29;100228.13;5015946;28;20050;-75
2022/11/13 01:51:36;;;;;;;22.45;13.88;;;18.30;89.00;;;18.75;52.33;100226.50;5033593;28;20033;-75
2022/11/13 01:54:07;;;;;;;21.50;12.95;;;18.40;88.90;;;18.76;51.94;100224.56;5016360;28;20483;-75
2022/11/13 01:56:36;;;;;;;18.67;12.07;;;18.40;88.50;;;18.76;51.79;100219.88;5017394;28;20038;-75
2022/11/13 01:59:14;;;;;;;20.88;11.90;;;18.40;88.40;;;18.73;52.41;100217.69;5008471;28;20049;-75
2022/11/13 02:01:40;;;;;;;20.10;12.10;;;18.40;89.20;;;18.72;52.83;100223.47;5025512;28;20053;-75
2022/11/13 02:04:07;;;;;;;21.48;12.93;;;18.30;89.60;;;18.71;52.50;100213.59;5035892;28;20041;-75
2022/11/13 02:06:45;;;;;;;19.92;11.10;;;18.30;89.30;;;18.73;52.16;100214.94;5034662;28;20045;-75
2022/11/13 02:09:12;;;;;;;22.67;12.65;;;18.40;88.90;;;18.73;52.16;100214.13;4989238;28;20179;-75
2022/11/13 02:11:38;;;;;;;22.15;11.90;;;18.40;88.40;;;18.73;52.00;100214.13;5002561;28;20072;-75
2022/11/13 02:14:04;;;;;;;20.05;13.20;;;18.40;88.40;;;18.73;52.22;100206.69;5003334;28;20151;-75
2022/11/13 02:16:31;;;;;;;19.15;12.32;;;18.40;88.60;;;18.76;52.55;100210.81;4992931;28;20041;-75
2022/11/13 02:18:57;;;;;;;16.88;11.77;;;18.40;89.20;;;18.76;52.62;100211.63;4999667;28;20560;-75
2022/11/13 02:21:43;;;;;;;15.82;11.60;;;18.40;89.30;;;18.72;52.31;100210.53;5006090;28;20037;-75
2022/11/13 02:24:27;;;;;;;18.38;10.60;;;18.40;88.90;;;18.75;52.12;100210.00;5031824;28;20052;-75
2022/11/13 02:26:53;;;;;;;17.65;11.75;;;18.40;88.40;;;18.71;52.07;100211.66;5020006;28;20045;-75
2022/11/13 02:29:20;;;;;;;15.75;11.45;;;18.40;88.40;;;18.74;51.80;100208.31;5001569;28;20044;-75
2022/11/13 02:31:46;;;;;;;17.13;11.85;;;18.40;88.40;;;18.74;52.39;100213.00;5028773;28;20124;-75
2022/11/13 02:34:12;;;;;;;18.27;10.88;;;18.40;89.10;;;18.68;52.60;100209.50;5018113;28;20041;-75
2022/11/13 02:36:38;;;;;;;19.33;12.13;;;18.40;89.30;;;18.70;52.51;100210.03;5032209;28;20043;-75
2022/11/13 02:39:07;;;;;;;17.27;11.02;;;18.30;89.20;;;18.71;51.94;100208.91;5021179;28;20045;-75
2022/11/13 02:41:33;;;;;;;16.63;10.55;;;18.40;88.70;;;18.71;51.88;100208.09;5027470;28;20473;-75
2022/11/13 02:43:59;;;;;;;16.33;10.07;;;18.40;88.40;;;18.72;51.78;100210.53;5024406;28;20072;-75
2022/11/13 02:46:25;;;;;;;18.98;10.90;;;18.40;88.40;;;18.69;52.25;100208.38;5022508;28;20132;-75
2022/11/13 02:48:51;;;;;;;17.92;10.40;;;18.40;88.40;;;18.72;52.44;100212.47;5027256;28;20404;-75
2022/11/13 02:51:17;;;;;;;16.50;10.07;;;18.40;89.20;;;18.71;52.48;100211.66;5030481;28;20045;-75
2022/11/13 02:53:44;;;;;;;17.02;10.63;;;18.30;89.20;;;18.68;52.26;100193.00;5025820;28;20475;-75
2022/11/13 02:56:10;;;;;;;14.52;9.85;;;18.40;88.80;;;18.72;52.02;100196.78;5028582;28;20045;-75
2022/11/13 02:58:36;;;;;;;18.98;10.52;;;18.40;88.40;;;18.71;51.93;100192.41;5028499;28;20389;-75
2022/11/13 03:01:03;;;;;;;16.33;10.75;;;18.40;88.40;;;18.70;52.14;100189.94;5026376;28;20056;-75
2022/11/13 03:03:29;;;;;;;14.50;9.85;;;18.40;88.40;;;18.69;52.32;100189.13;5021612;28;20050;-75
2022/11/13 03:05:55;;;;;;;17.27;10.80;;;18.30;88.80;;;18.71;52.35;100186.09;4994535;28;20049;-75
2022/11/13 03:08:22;;;;;;;15.70;10.30;;;18.30;89.10;;;18.69;52.33;100193.81;5012310;28;20047;-75
2022/11/13 03:10:49;;;;;;;13.75;10.35;;;18.30;89.10;;;18.70;52.17;100199.03;5043017;28;20515;-75
2022/11/13 03:13:15;;;;;;;13.57;10.02;;;18.30;88.60;;;18.69;52.03;100210.31;5030362;28;20044;-75
2022/11/13 03:15:41;;;;;;;20.23;10.73;;;18.40;88.40;;;18.70;51.98;100218.28;5028510;28;20034;-75
2022/11/13 03:18:07;;;;;;;14.13;9.93;;;18.40;88.40;;;18.70;51.91;100217.44;5028693;28;20041;-75
2022/11/13 03:20:36;;;;;;;14.85;9.77;;;18.40;88.50;;;18.69;52.45;100215.81;5024132;28;20417;-75
2022/11/13 03:23:02;;;;;;;18.20;10.43;;;18.40;89.00;;;18.69;52.65;100222.13;4997040;28;20049;-75
2022/11/13 03:25:28;;;;;;;16.30;9.80;;;18.30;89.10;;;18.68;52.19;100223.25;4993955;28;20095;-75
2022/11/13 03:27:54;;;;;;;17.45;9.52;;;18.30;88.80;;;18.67;52.10;100229.81;4977842;28;20045;-75
2022/11/13 03:30:20;;;;;;;16.13;9.30;;;18.30;88.30;;;18.67;52.13;100224.34;5011087;28;20075;-75
2022/11/13 03:32:47;;;;;;;17.27;10.55;;;18.40;88.40;;;18.66;51.78;100217.22;4997705;28;20075;-75
2022/11/13 03:35:13;;;;;;;22.50;11.60;;;18.40;88.40;;;18.67;52.09;100221.59;5030982;28;20037;-75
2022/11/13 03:37:39;;;;;;;12.35;9.15;;;18.40;88.40;;;18.65;52.56;100218.34;5001269;28;20032;-75
2022/11/13 03:40:06;;;;;;;14.95;9.93;;;18.30;89.10;;;18.63;52.85;100218.63;5029282;28;20497;-75
2022/11/13 03:42:32;;;;;;;13.70;9.45;;;18.20;89.20;;;18.65;52.13;100227.38;5015284;28;20434;-75
2022/11/13 03:44:58;;;;;;;16.63;9.73;;;18.30;88.70;;;18.68;52.07;100219.69;5031841;28;20053;-74
2022/11/13 03:47:24;;;;;;;13.50;9.38;;;18.30;88.30;;;18.66;52.05;100220.78;5011269;28;20034;-75
2022/11/13 03:49:50;;;;;;;12.68;9.07;;;18.30;88.30;;;18.67;51.79;100218.84;5028748;28;20049;-75
2022/11/13 03:52:16;;;;;;;12.82;7.88;;;18.30;88.30;;;18.66;51.97;100217.22;5027981;28;20053;-75
2022/11/13 03:54:42;;;;;;;14.27;9.55;;;18.30;88.30;;;18.64;51.55;100222.19;5028451;28;20038;-75
2022/11/13 03:57:08;;;;;;;15.25;9.77;;;18.30;88.30;;;18.68;51.34;100228.75;5014198;28;20080;-75
2022/11/13 03:59:34;;;;;;;16.23;10.27;;;18.40;88.10;;;18.69;51.37;100219.38;5001859;28;20048;-75
2022/11/13 04:02:00;;;;;;;16.25;9.80;;;18.30;88.00;;;18.65;51.55;100221.91;5024557;28;20045;-75
2022/11/13 04:04:26;;;;;;;14.13;9.75;;;18.20;88.20;;;18.72;51.81;100224.28;5012268;28;20037;-75
2022/11/13 04:06:52;;;;;;;16.50;10.15;;;18.30;88.60;;;18.69;51.85;100219.38;5011658;28;20057;-75
2022/11/13 04:09:18;;;;;;;13.73;9.15;;;18.30;88.70;;;18.70;51.49;100217.44;5002592;28;20045;-75
2022/11/13 04:11:44;;;;;;;16.25;9.52;;;18.30;88.30;;;18.73;51.12;100217.69;5024995;28;20045;-75
2022/11/13 04:14:10;;;;;;;14.07;9.68;;;18.30;87.90;;;18.71;51.14;100208.91;5024562;28;20129;-75
2022/11/13 04:16:36;;;;;;;15.40;9.18;;;18.30;87.80;;;18.71;50.90;100216.34;4995624;28;20034;-75
2022/11/13 04:19:03;;;;;;;14.88;9.55;;;18.30;87.60;;;18.72;51.25;100215.22;5010445;28;20040;-75
2022/11/13 04:21:29;;;;;;;13.52;9.07;;;18.40;87.90;;;18.74;51.40;100208.31;5008555;28;20042;-75
2022/11/13 04:23:55;;;;;;;15.45;9.63;;;18.40;88.00;;;18.74;51.45;100205.56;4995023;28;20120;-75
2022/11/13 04:26:21;;;;;;;15.50;10.32;;;18.40;88.30;;;18.74;51.26;100208.31;4994622;28;20049;-75
2022/11/13 04:28:47;;;;;;;12.40;8.57;;;18.40;87.90;;;18.78;51.35;100209.41;5026260;28;20064;-75
2022/11/13 04:31:13;;;;;;;16.33;9.50;;;18.40;87.80;;;18.76;51.08;100208.88;5006570;28;20038;-75
2022/11/13 04:33:39;;;;;;;12.75;8.98;;;18.40;87.70;;;18.78;50.87;100206.66;4991852;28;20041;-75
2022/11/13 04:36:05;;;;;;;12.35;8.40;;;18.30;87.80;;;18.81;51.05;100210.75;4992093;28;20730;-75
2022/11/13 04:38:31;;;;;;;15.07;8.13;;;18.30;88.30;;;18.82;51.17;100207.69;5009029;28;20404;-75
2022/11/13 04:43:42;;;;;;;14.38;8.68;;;18.40;88.30;;;18.85;50.77;100218.13;5013975;28;20041;-75
2022/11/13 04:46:08;;;;;;;12.10;8.50;;;18.40;87.80;;;18.82;50.86;100215.94;4993306;28;20270;-75
2022/11/13 04:48:34;;;;;;;14.60;9.88;;;18.40;87.70;;;18.85;50.64;100214.53;4990597;28;20041;-75
2022/11/13 04:51:00;;;;;;;16.70;9.65;;;18.40;87.70;;;18.86;50.65;100208.75;5022980;28;20041;-75
2022/11/13 04:53:27;;;;;;;12.20;7.95;;;18.40;87.80;;;18.89;50.83;100212.03;5014127;28;20049;-75
2022/11/13 04:55:52;;;;;;;13.07;8.82;;;18.40;88.30;;;18.93;51.01;100213.06;5008918;28;20538;-75
2022/11/13 04:58:18;;;;;;;17.48;8.68;;;18.40;88.40;;;18.94;50.65;100203.72;5024417;28;20046;-75
2022/11/13 05:00:45;;;;;;;12.50;8.20;;;18.40;88.00;;;18.96;50.83;100212.50;5031509;28;20056;-75
2022/11/13 05:03:11;;;;;;;11.20;8.05;;;18.40;87.80;;;18.94;50.51;100211.97;5030123;28;20164;-75
2022/11/13 05:05:37;;;;;;;12.13;8.85;;;18.40;87.70;;;18.96;50.25;100212.50;5006163;28;20519;-75
2022/11/13 05:08:03;;;;;;;12.65;8.90;;;18.40;87.50;;;19.01;50.63;100217.91;5027768;28;20037;-75
2022/11/13 05:10:29;;;;;;;11.75;8.65;;;18.40;88.00;;;19.00;50.66;100216.25;4998595;28;20046;-75
2022/11/13 05:12:56;;;;;;;12.15;8.40;;;18.40;88.20;;;19.02;50.78;100214.84;5029108;28;20053;-75
2022/11/13 05:15:21;;;;;;;12.65;8.13;;;18.40;88.40;;;19.06;50.46;100215.09;5012547;28;20045;-75
2022/11/13 05:17:48;;;;;;;8.98;7.40;;;18.40;88.00;;;19.05;50.50;100214.25;5035919;28;20049;-75
2022/11/13 05:20:15;;;;;;;11.93;8.32;;;18.50;88.80;;;19.06;50.37;100204.09;5016425;28;20050;-75
2022/11/13 05:22:41;;;;;;;12.77;8.70;;;18.40;87.80;;;19.03;50.29;100204.66;5014930;28;20069;-75
2022/11/13 05:25:07;;;;;;;12.00;8.20;;;18.50;87.80;;;19.11;50.52;100209.53;5030101;28;20116;-75
2022/11/13 05:27:33;;;;;;;11.07;8.07;;;18.50;88.10;;;19.14;50.51;100217.19;5033211;28;20042;-75
2022/11/13 05:29:59;;;;;;;11.13;8.20;;;18.50;88.10;;;19.17;50.27;100213.84;5032067;28;20168;-75
2022/11/13 05:32:25;;;;;;;13.63;7.78;;;18.50;88.10;;;19.21;50.22;100212.13;5019777;28;20041;-75
2022/11/13 05:34:51;;;;;;;13.35;8.18;;;18.50;87.90;;;19.23;50.16;100207.16;5012232;28;20042;-75
2022/11/13 05:37:17;;;;;;;12.70;7.97;;;18.50;87.80;;;19.19;50.08;100214.34;5033843;28;21051;-75
2022/11/13 05:39:43;;;;;;;10.35;7.68;;;18.50;87.60;;;19.21;50.02;100214.03;4996328;28;20048;-75
2022/11/13 05:42:09;;;;;;;12.43;7.35;;;18.50;87.70;;;19.25;50.29;100221.41;5031622;28;20045;-75
2022/11/13 05:44:35;;;;;;;12.82;8.90;;;18.50;88.10;;;19.31;50.05;100216.69;5016422;28;20048;-75
2022/11/13 05:47:02;;;;;;;12.77;8.18;;;18.50;88.20;;;19.32;49.92;100217.50;5033128;28;20033;-75
2022/11/13 05:49:27;;;;;;;12.05;8.65;;;18.60;88.00;;;19.30;49.79;100204.84;5029865;28;20038;-75
2022/11/13 05:51:54;;;;;;;11.52;7.55;;;18.60;87.90;;;19.37;49.69;100209.16;5030060;28;20458;-75
2022/11/13 05:54:20;;;;;;;15.52;8.63;;;18.60;87.90;;;19.37;49.99;100203.66;5018630;28;20045;-75
2022/11/13 05:56:46;;;;;;;11.95;7.85;;;18.70;87.90;;;19.39;49.72;100206.94;5022706;28;20136;-75
2022/11/13 05:59:12;;;;;;;11.60;7.95;;;18.70;87.90;;;19.40;49.98;100205.81;5027541;28;20041;-74
2022/11/13 06:01:39;;;;;;;13.05;9.40;;;18.70;87.70;;;19.41;50.20;100207.44;5012350;28;20038;-75
2022/11/13 06:04:06;;;;;;;13.43;6.93;;;18.70;87.90;;;19.45;49.77;100211.25;5014079;28;20041;-75
2022/11/13 06:06:33;;;;;;;9.20;7.10;;;18.70;87.90;;;19.47;50.03;100203.50;4998270;28;20405;-75
2022/11/13 06:09:00;;;;;;;11.20;7.32;;;18.70;88.10;;;19.49;50.14;100190.28;4979787;28;20454;-75
2022/11/13 06:11:28;;;;;;;9.68;7.47;;;18.70;88.00;;;19.49;49.94;100190.28;5000221;28;20530;-74
2022/11/13 06:13:54;;;;;;;13.68;7.53;;;18.70;88.00;;;19.52;49.77;100200.69;5011188;28;20053;-74
2022/11/13 06:16:26;;;;;;;11.32;7.50;;;18.80;88.00;;;19.50;49.93;100202.91;5012997;28;20381;-74
2022/11/13 06:19:00;;;;;;;12.63;7.65;;;18.70;88.00;;;19.53;49.92;100202.31;5026335;28;20037;-74
2022/11/13 06:21:29;;;;;;;10.43;8.63;;;18.80;88.20;;;19.53;49.99;100196.78;5024984;28;20048;-75
2022/11/13 06:23:56;;;;;;;10.88;7.38;;;18.80;88.20;;;19.56;50.07;100198.94;5024913;28;20041;-76
2022/11/13 06:26:32;;;;;;;11.27;7.15;;;18.90;88.30;;;19.55;49.92;100200.06;5003803;28;20485;-74
2022/11/13 06:28:59;;;;;;;10.63;7.50;;;18.90;88.20;;;19.52;50.20;100195.19;5013912;28;20115;-75
2022/11/13 06:31:28;;;;;;;10.48;7.82;;;18.90;88.00;;;19.55;50.07;100200.06;4992057;28;20437;-75
2022/11/13 06:33:54;;;;;;;9.75;6.90;;;18.80;88.10;;;19.59;49.81;100195.63;5023109;28;20050;-74
2022/11/13 06:36:26;;;;;;;11.93;7.60;;;18.90;88.00;;;19.61;49.87;100198.88;4989765;28;20068;-75
2022/11/13 06:38:53;;;;;;;9.20;7.00;;;18.90;88.10;;;19.63;50.37;100202.13;5012159;28;20041;-75
2022/11/13 06:41:23;;;;;;;12.65;6.63;;;18.90;88.40;;;19.64;50.03;100200.19;5008521;28;20050;-75
2022/11/13 06:43:49;;;;;;;9.63;7.80;;;18.90;88.30;;;19.65;49.97;100191.66;4995148;28;20497;-75
2022/11/13 06:46:19;;;;;;;12.60;7.80;;;19.00;88.10;;;19.64;49.90;100192.78;5010394;28;20053;-75
2022/11/13 06:48:45;;;;;;;12.80;7.47;;;19.00;88.10;;;19.63;49.85;100198.56;5011098;28;20049;-75
2022/11/13 06:51:23;;;;;;;10.48;7.82;;;19.00;87.90;;;19.63;50.11;100196.63;5012806;28;20373;-74
2022/11/13 06:53:49;;;;;;;11.20;7.55;;;19.00;88.10;;;19.67;50.20;100192.22;5010817;28;20049;-77
2022/11/13 06:56:15;;;;;;;8.20;7.00;;;19.00;88.20;;;19.69;50.21;100194.63;5014854;28;20051;-76
2022/11/13 06:58:42;;;;;;;9.85;6.65;;;19.00;88.30;;;19.70;50.19;100199.03;5027724;28;20409;-76
2022/11/13 07:01:14;;;;;;;10.05;6.95;;;19.00;88.20;;;19.71;50.08;100207.00;4997886;28;20046;-75
2022/11/13 07:03:40;;;;;;;9.88;7.82;;;19.00;88.30;;;19.69;49.85;100201.00;5010180;28;20054;-75
2022/11/13 07:06:15;;;;;;;11.70;7.22;;;19.00;88.30;;;19.77;50.67;100204.16;5013162;28;20033;-77
2022/11/13 07:08:41;;;;;;;10.57;7.30;;;18.90;89.00;;;19.87;50.78;100198.47;4999003;28;20401;-76
2022/11/13 07:11:15;;;;;;;11.55;6.65;;;19.00;89.40;;;19.83;50.50;100195.50;4981692;28;20042;-74
2022/11/13 07:13:41;;;;;;;12.18;7.80;;;19.00;89.10;;;19.83;50.80;100200.22;5006623;28;20576;-75
2022/11/13 07:16:09;;;;;;;12.68;6.28;;;19.10;89.10;;;19.85;51.80;100192.47;4988532;28;20099;-74
2022/11/13 07:18:38;;;;;;;23.20;7.22;;;19.10;90.20;;;19.98;51.88;100191.69;4994891;28;20477;-75
2022/11/13 07:21:09;;;;;;;12.10;6.55;;;19.10;90.20;;;20.01;52.43;100195.78;5014901;28;20648;-75
2022/11/13 07:23:35;;;;;;;21.95;8.27;;;19.20;90.60;;;20.06;53.13;100182.72;4975754;28;20045;-75
2022/11/13 07:26:05;;;;;;;17.88;8.65;;;19.20;90.70;;;20.10;53.30;100185.69;5006821;28;20045;-75
2022/11/13 07:28:31;;;;;;;16.30;7.35;;;19.20;91.10;;;20.10;54.00;100181.00;5011261;28;20405;-74
2022/11/13 07:30:58;;;;;;;29.92;7.57;;;19.30;91.40;;;20.05;53.64;100180.25;5025832;28;20047;-75
2022/11/13 07:33:24;;;;;;;12.30;7.88;;;19.30;91.00;;;20.02;53.39;100183.63;5027740;28;20119;-75
2022/11/13 07:35:54;;;;;;;27.90;8.48;;;19.30;90.80;;;20.05;52.88;100185.75;5014338;28;20120;-75
2022/11/13 07:38:20;;;;;;;18.77;7.78;;;19.30;90.70;;;20.04;52.83;100184.94;5003083;28;20077;-74
2022/11/13 07:40:47;;;;;;;10.95;7.00;;;19.30;90.70;;;20.02;52.83;100176.16;4993837;28;20045;-74
2022/11/13 07:43:14;;;;;;;17.67;6.70;;;19.30;90.60;;;20.02;53.16;100180.88;5027860;28;20102;-74
2022/11/13 07:45:42;;;;;;;24.77;9.02;;;19.30;90.60;;;20.02;52.84;100178.13;5027021;28;20485;-74
2022/11/13 07:48:08;;;;;;;13.05;7.75;;;19.30;90.50;;;20.03;52.46;100188.84;4991346;28;20112;-74
2022/11/13 07:50:37;;;;;;;19.75;7.93;;;19.30;90.50;;;20.04;52.34;100195.16;4994942;28;20048;-73
2022/11/13 07:53:06;;;;;;;17.48;7.80;;;19.30;90.40;;;20.06;52.19;100195.69;5017715;28;20048;-73
2022/11/13 07:55:33;;;;;;;22.35;8.82;;;19.30;90.40;;;20.08;52.00;100193.44;5010942;28;20034;-73
2022/11/13 07:58:00;;;;;;;17.60;7.32;;;19.30;90.30;;;20.06;52.03;100196.50;5010178;28;20045;-73
2022/11/13 08:00:27;;;;;;;17.05;9.20;;;19.30;90.30;;;20.03;52.17;100208.13;5031212;28;20041;-73
2022/11/13 08:02:53;;;;;;;14.50;8.65;;;19.30;90.30;;;20.06;51.94;100203.94;5019195;28;20111;-73
2022/11/13 08:05:19;;;;;;;16.10;7.85;;;19.40;90.20;;;20.05;51.92;100191.28;5005639;28;20052;-73
2022/11/13 08:07:49;;;;;;;14.55;7.95;;;19.40;90.10;;;20.07;51.75;100200.06;4979522;28;20049;-73
2022/11/13 08:10:17;;;;;;;18.40;8.23;;;19.40;90.00;;;20.05;51.91;100200.38;4992635;28;20050;-73
2022/11/13 08:12:44;;;;;;;17.17;8.15;;;19.30;90.00;;;20.05;51.90;100203.13;4993988;28;20048;-73
2022/11/13 08:15:10;;;;;;;14.40;9.05;;;19.40;90.10;;;20.05;51.94;100205.88;5009622;28;20095;-73
2022/11/13 08:17:37;;;;;;;17.83;9.20;;;19.40;90.10;;;20.10;51.56;100207.75;5023614;28;20556;-73
2022/11/13 08:20:04;;;;;;;24.02;9.48;;;19.40;90.00;;;20.08;51.31;100199.75;5005492;28;20052;-73
2022/11/13 08:22:30;;;;;;;15.87;8.70;;;19.40;90.00;;;20.08;51.43;100199.75;5006105;28;20041;-73
2022/11/13 08:24:56;;;;;;;15.55;8.50;;;19.40;89.90;;;20.11;51.39;100204.66;5025292;28;20374;-73
2022/11/13 08:27:23;;;;;;;14.35;9.00;;;19.40;89.80;;;20.10;51.35;100203.03;5009129;28;20064;-78
2022/11/13 08:29:49;;;;;;;15.98;8.65;;;19.40;89.50;;;20.06;51.45;100198.44;4989381;28;20045;-74
2022/11/13 08:32:16;;;;;;;14.00;9.18;;;19.40;89.70;;;20.10;51.51;100199.47;5012811;28;20049;-74
2022/11/13 08:34:42;;;;;;;14.98;8.88;;;19.40;89.80;;;20.12;51.26;100198.06;5020533;28;20047;-74
2022/11/13 08:37:09;;;;;;;20.33;9.95;;;19.40;89.50;;;20.12;51.28;100200.81;5020964;28;20041;-74
2022/11/13 08:39:35;;;;;;;23.05;9.77;;;19.40;89.60;;;20.12;51.38;100200.81;5013551;28;20412;-77
2022/11/13 08:42:03;;;;;;;37.90;18.23;;;19.50;89.60;;;20.17;52.88;100202.63;4996504;28;20144;-77
2022/11/13 08:44:30;;;;;;;49.85;21.60;;;19.40;90.60;;;20.23;53.75;100204.19;4992753;28;20041;-74
2022/11/13 08:46:56;;;;;;;53.97;22.38;;;19.60;91.10;;;20.20;53.07;100201.19;5020374;28;20225;-75
2022/11/13 08:49:22;;;;;;;49.22;23.42;;;19.50;90.70;;;20.20;53.27;100203.97;5014691;28;20720;-75
2022/11/13 08:51:48;;;;;;;54.65;22.27;;;19.60;90.70;;;20.22;52.90;100198.97;5013214;28;20481;-75
2022/11/13 08:54:15;;;;;;;39.45;20.70;;;19.60;90.60;;;20.22;52.48;100208.03;5018131;28;20084;-75
2022/11/13 08:56:41;;;;;;;43.78;19.73;;;19.50;90.50;;;20.22;52.63;100202.53;5026937;28;20056;-75
2022/11/13 08:59:09;;;;;;;42.22;19.33;;;19.50;90.40;;;20.23;52.31;100208.88;5029364;28;20041;-75
2022/11/13 09:01:35;;;;;;;46.85;21.50;;;19.50;90.40;;;20.21;52.49;100200.91;4994649;28;20410;-75
2022/11/13 09:04:01;;;;;;;53.90;23.55;;;19.50;90.40;;;20.21;52.36;100214.69;5008272;28;20053;-75
2022/11/13 09:06:27;;;;;;;54.67;24.02;;;19.50;90.40;;;20.24;51.83;100210.50;5031650;28;20049;-75
2022/11/13 09:08:53;;;;;;;48.70;21.60;;;19.60;90.40;;;20.20;52.12;100214.97;5033635;28;20063;-75
2022/11/13 09:11:26;;;;;;;46.20;21.80;;;19.60;90.30;;;20.18;52.09;100215.31;5028931;28;20086;-75
2022/11/13 09:13:53;;;;;;;50.75;21.77;;;19.60;90.20;;;20.22;51.95;100213.56;5023366;28;20460;-74
2022/11/13 09:16:20;;;;;;;49.17;22.15;;;19.60;90.10;;;20.22;51.87;100215.50;4991127;28;20046;-74
2022/11/13 09:18:50;;;;;;;56.47;23.10;;;19.60;90.20;;;20.20;52.03;100204.78;5009554;28;20131;-74
2022/11/13 09:21:16;;;;;;;59.60;24.38;;;19.60;90.20;;;20.22;51.84;100198.97;5014006;28;20076;-74
2022/11/13 09:23:42;;;;;;;54.28;23.30;;;19.50;90.20;;;20.22;51.69;100204.47;5010511;28;20065;-74
2022/11/13 09:26:08;;;;;;;59.38;23.95;;;19.60;90.10;;;20.25;51.65;100192.84;5033298;28;20045;-74
2022/11/13 09:28:37;;;;;;;62.13;25.08;;;19.60;90.00;;;20.23;51.69;100193.16;5024622;28;20285;-74
2022/11/13 09:31:04;;;;;;;53.03;22.13;;;19.60;89.70;;;20.26;51.45;100198.06;5010115;28;20476;-74
2022/11/13 09:33:30;;;;;;;45.40;21.00;;;19.60;89.70;;;20.27;51.37;100196.94;4990964;28;20409;-74
2022/11/13 09:35:56;;;;;;;54.00;23.40;;;19.60;89.70;;;20.30;51.36;100195.50;5025845;28;20045;-74
2022/11/13 09:38:23;;;;;;;55.15;25.08;;;19.60;89.80;;;20.29;51.54;100197.44;5000848;28;20044;-74
2022/11/13 09:40:57;;;;;;;61.95;25.48;;;19.60;89.80;;;20.25;51.28;100201.94;5023032;28;20111;-74
2022/11/13 09:43:38;;;;;;;43.47;22.15;;;19.60;89.70;;;20.24;51.17;100194.78;5027666;28;20068;-74
2022/11/13 09:46:17;;;;;;;42.63;22.70;;;19.60;89.70;;;20.24;51.31;100193.97;5035135;28;20099;-74
2022/11/13 09:48:51;;;;;;;41.00;21.58;;;19.60;89.70;;;20.27;51.09;100193.34;5004813;28;20453;-74
2022/11/13 09:51:28;;;;;;;56.13;22.75;;;19.70;89.70;;;20.24;51.17;100192.03;5008338;28;20052;-74
2022/11/13 09:53:54;;;;;;;55.08;26.77;;;19.70;89.70;;;20.29;51.04;100200.19;5008321;28;20049;-74
2022/11/13 09:56:32;;;;;;;51.40;24.05;;;19.70;89.80;;;20.24;51.39;100196.72;4991116;28;20052;-74
2022/11/13 09:59:41;;;;;;;54.65;22.27;;;19.70;89.70;;;20.26;51.00;100197.25;5041695;28;20049;-74
2022/11/13 10:02:07;;;;;;;48.90;21.05;;;19.70;89.40;;;20.25;50.87;100192.84;5023656;28;20080;-74
2022/11/13 10:04:49;;;;;;;54.35;23.42;;;19.70;89.30;;;20.28;50.99;100195.81;5024855;28;20038;-74
2022/11/13 10:07:40;;;;;;;51.13;24.98;;;19.70;89.20;;;20.28;50.96;100189.50;5010244;28;20048;-74